Terminal Aerodrome Forecast
Issued by NWS

Home | Current Version | Previous Version | Text Only | Print | Product List | Glossary On
Versions: 1 2 3 4 5 6 7 8 9 10 11 12 13 14
000
FTUS46 KSEW 272300
TAFBFI
TAF
KBFI 272320Z 2800/2824 31006KT P6SM SCT250
     FM280300 VRB03KT P6SM SKC
     FM281100 18009KT P6SM OVC014
     FM281500 18010G18KT P6SM -RA BKN018 OVC035
     FM281900 VRB05KT P6SM -SHRA BKN030 BKN045=

USA.gov is the U.S. government's official web portal to all federal, state and local government web resources and services.